FDX5434 EGLL-LIMC
Flight info
| Callsign | FDX5434 |
|---|---|
| Flight time | 1h 27m |
| Altitude | 41000 |
| Route | MODMI M185 MID L612 BOGNA UL612 VEULE DCT TEPRI UN491 POGZI DCT GELTA DCT LUVAL DCT SHARA DCT DEVDI DCT BASGO Z424 RIXUV |
| Aircraft | B77L/H-SDE1E2E3FGHIJ2J3J4J5M1RWXY/LB1D1 |
Departure
| Time | 2026-05-05 17:33 |
|---|---|
| Airport | London Heathrow Airport (EGLL) |
Arrival
| Time | 2026-05-05 19:00 |
|---|---|
| Airport | Milan Malpensa International Airport (LIMC) |
| Time | Latitude | Longitude | Altitude | Speed | Heading |
|---|---|---|---|---|---|
| 2026-05-05 17:01 | 51.46112 | -0.45543 | 77 ft | 0 kts | 236° |
| 2026-05-05 17:02 | 51.46112 | -0.45542 | 92 ft | 0 kts | 236° |
| 2026-05-05 17:08 | 51.46112 | -0.45543 | 92 ft | 0 kts | 236° |
| 2026-05-05 17:08 | 51.46112 | -0.45542 | 92 ft | 0 kts | 236° |
| 2026-05-05 17:11 | 51.46112 | -0.45543 | 92 ft | 0 kts | 236° |
| 2026-05-05 17:11 | 51.46112 | -0.45542 | 92 ft | 0 kts | 236° |
| 2026-05-05 17:19 | 51.46124 | -0.45515 | 93 ft | 4 kts | 236° |
| 2026-05-05 17:20 | 51.46139 | -0.45479 | 94 ft | 3 kts | 236° |
| 2026-05-05 17:20 | 51.46150 | -0.45449 | 94 ft | 4 kts | 257° |
| 2026-05-05 17:20 | 51.46150 | -0.45419 | 92 ft | 4 kts | 304° |
| 2026-05-05 17:20 | 51.46133 | -0.45391 | 93 ft | 4 kts | 326° |
| 2026-05-05 17:21 | 51.46119 | -0.45376 | 94 ft | 1 kts | 326° |
| 2026-05-05 17:21 | 51.46118 | -0.45375 | 94 ft | 0 kts | 325° |
| 2026-05-05 17:27 | 51.46145 | -0.45405 | 96 ft | 10 kts | 325° |
| 2026-05-05 17:27 | 51.46211 | -0.45478 | 96 ft | 12 kts | 325° |
| 2026-05-05 17:28 | 51.46285 | -0.45560 | 96 ft | 14 kts | 322° |
| 2026-05-05 17:28 | 51.46324 | -0.45699 | 95 ft | 16 kts | 273° |
| 2026-05-05 17:28 | 51.46323 | -0.45888 | 92 ft | 18 kts | 269° |
| 2026-05-05 17:28 | 51.46323 | -0.46095 | 92 ft | 19 kts | 270° |
| 2026-05-05 17:29 | 51.46323 | -0.46315 | 92 ft | 20 kts | 270° |
| 2026-05-05 17:29 | 51.46322 | -0.46549 | 93 ft | 21 kts | 270° |
| 2026-05-05 17:29 | 51.46321 | -0.46794 | 93 ft | 23 kts | 270° |
| 2026-05-05 17:29 | 51.46321 | -0.47051 | 94 ft | 23 kts | 270° |
| 2026-05-05 17:30 | 51.46323 | -0.47317 | 93 ft | 24 kts | 275° |
| 2026-05-05 17:30 | 51.46339 | -0.47585 | 93 ft | 24 kts | 265° |
| 2026-05-05 17:30 | 51.46269 | -0.47828 | 97 ft | 24 kts | 242° |
| 2026-05-05 17:30 | 51.46250 | -0.48093 | 92 ft | 24 kts | 270° |
| 2026-05-05 17:31 | 51.46250 | -0.48366 | 92 ft | 24 kts | 270° |
| 2026-05-05 17:31 | 51.46258 | -0.48614 | 95 ft | 21 kts | 288° |
| 2026-05-05 17:31 | 51.46287 | -0.48690 | 94 ft | 0 kts | 312° |
| 2026-05-05 17:32 | 51.46316 | -0.48727 | 96 ft | 10 kts | 328° |
| 2026-05-05 17:32 | 51.46391 | -0.48756 | 95 ft | 12 kts | 356° |
| 2026-05-05 17:32 | 51.46466 | -0.48715 | 96 ft | 12 kts | 51° |
| 2026-05-05 17:32 | 51.46477 | -0.48552 | 95 ft | 28 kts | 90° |
| 2026-05-05 17:33 | 51.46480 | -0.47694 | 91 ft | 127 kts | 89° |
| 2026-05-05 17:33 | 51.46482 | -0.45879 | 272 ft | 187 kts | 88° |
| 2026-05-05 17:33 | 51.46488 | -0.43720 | 1110 ft | 194 kts | 87° |
| 2026-05-05 17:33 | 51.46442 | -0.41572 | 2227 ft | 194 kts | 99° |
| 2026-05-05 17:34 | 51.45868 | -0.39508 | 2970 ft | 217 kts | 119° |
| 2026-05-05 17:34 | 51.44823 | -0.37477 | 3415 ft | 254 kts | 144° |
| 2026-05-05 17:34 | 51.43133 | -0.36471 | 4310 ft | 265 kts | 163° |
| 2026-05-05 17:34 | 51.41355 | -0.35613 | 4879 ft | 272 kts | 167° |
| 2026-05-05 17:35 | 51.40071 | -0.35539 | 5276 ft | 278 kts | 192° |
| 2026-05-05 17:35 | 51.38113 | -0.36858 | 6577 ft | 279 kts | 208° |
| 2026-05-05 17:35 | 51.36338 | -0.38112 | 7661 ft | 283 kts | 194° |
| 2026-05-05 17:35 | 51.34355 | -0.38401 | 8740 ft | 289 kts | 181° |
| 2026-05-05 17:36 | 51.32327 | -0.38439 | 9967 ft | 293 kts | 181° |
| 2026-05-05 17:36 | 51.30255 | -0.38476 | 10958 ft | 306 kts | 181° |
| 2026-05-05 17:36 | 51.28025 | -0.38519 | 11520 ft | 337 kts | 181° |
| 2026-05-05 17:36 | 51.25554 | -0.38571 | 11968 ft | 372 kts | 181° |
| 2026-05-05 17:37 | 51.22914 | -0.38634 | 13106 ft | 382 kts | 180° |
| 2026-05-05 17:37 | 51.21147 | -0.38682 | 14030 ft | 385 kts | 180° |
| 2026-05-05 17:37 | 51.17525 | -0.38740 | 15603 ft | 395 kts | 177° |
| 2026-05-05 17:37 | 51.14764 | -0.38216 | 16695 ft | 403 kts | 168° |
| 2026-05-05 17:38 | 51.12041 | -0.37006 | 17879 ft | 409 kts | 160° |
| 2026-05-05 17:38 | 51.09350 | -0.35391 | 18870 ft | 417 kts | 159° |
| 2026-05-05 17:38 | 51.06606 | -0.33774 | 19852 ft | 424 kts | 159° |
| 2026-05-05 17:38 | 51.03826 | -0.32163 | 20916 ft | 428 kts | 160° |
| 2026-05-05 17:39 | 51.01045 | -0.30565 | 21828 ft | 435 kts | 160° |
| 2026-05-05 17:39 | 50.98132 | -0.28900 | 22785 ft | 442 kts | 160° |
| 2026-05-05 17:39 | 50.95255 | -0.27260 | 23682 ft | 448 kts | 160° |
| 2026-05-05 17:39 | 50.92314 | -0.25586 | 24678 ft | 447 kts | 160° |
| 2026-05-05 17:40 | 50.89394 | -0.23926 | 25764 ft | 445 kts | 160° |
| 2026-05-05 17:40 | 50.86467 | -0.22265 | 26625 ft | 450 kts | 160° |
| 2026-05-05 17:40 | 50.83501 | -0.20583 | 27386 ft | 455 kts | 161° |
| 2026-05-05 17:40 | 50.80507 | -0.18887 | 28206 ft | 458 kts | 161° |
| 2026-05-05 17:41 | 50.77493 | -0.17182 | 29025 ft | 461 kts | 161° |
| 2026-05-05 17:41 | 50.74463 | -0.15471 | 29813 ft | 463 kts | 161° |
| 2026-05-05 17:41 | 50.71416 | -0.13752 | 30428 ft | 467 kts | 161° |
| 2026-05-05 17:41 | 50.68340 | -0.12019 | 30904 ft | 471 kts | 161° |
| 2026-05-05 17:42 | 50.65246 | -0.10278 | 31487 ft | 472 kts | 160° |
| 2026-05-05 17:42 | 50.62154 | -0.08541 | 32194 ft | 471 kts | 160° |
| 2026-05-05 17:42 | 50.59074 | -0.06812 | 32918 ft | 469 kts | 160° |
| 2026-05-05 17:42 | 50.55999 | -0.05089 | 33594 ft | 468 kts | 160° |
| 2026-05-05 17:43 | 50.52976 | -0.03396 | 34204 ft | 467 kts | 160° |
| 2026-05-05 17:43 | 50.49902 | -0.01679 | 34744 ft | 466 kts | 160° |
| 2026-05-05 17:43 | 50.46836 | 0.00135 | 35210 ft | 467 kts | 157° |
| 2026-05-05 17:43 | 50.43939 | 0.02310 | 35666 ft | 468 kts | 152° |
| 2026-05-05 17:44 | 50.41140 | 0.04950 | 36126 ft | 470 kts | 146° |
| 2026-05-05 17:44 | 50.38442 | 0.07833 | 36537 ft | 471 kts | 146° |
| 2026-05-05 17:44 | 50.35727 | 0.10727 | 37052 ft | 470 kts | 147° |
| 2026-05-05 17:44 | 50.33011 | 0.13572 | 37520 ft | 471 kts | 147° |
| 2026-05-05 17:45 | 50.30272 | 0.16410 | 37892 ft | 473 kts | 147° |
| 2026-05-05 17:45 | 50.27516 | 0.19254 | 38332 ft | 473 kts | 148° |
| 2026-05-05 17:45 | 50.24768 | 0.22091 | 38745 ft | 474 kts | 148° |
| 2026-05-05 17:45 | 50.22011 | 0.24937 | 39117 ft | 473 kts | 147° |
| 2026-05-05 17:46 | 50.19259 | 0.27775 | 39453 ft | 474 kts | 148° |
| 2026-05-05 17:46 | 50.16507 | 0.30604 | 39790 ft | 474 kts | 148° |
| 2026-05-05 17:46 | 50.13753 | 0.33429 | 40132 ft | 474 kts | 148° |
| 2026-05-05 17:46 | 50.10991 | 0.36256 | 40421 ft | 476 kts | 148° |
| 2026-05-05 17:47 | 50.08219 | 0.39090 | 40729 ft | 477 kts | 148° |
| 2026-05-05 17:47 | 50.05431 | 0.41939 | 40839 ft | 482 kts | 148° |
| 2026-05-05 17:47 | 50.02615 | 0.44810 | 40879 ft | 485 kts | 148° |
| 2026-05-05 17:48 | 49.96988 | 0.50547 | 40891 ft | 485 kts | 148° |
| 2026-05-05 17:48 | 49.91396 | 0.56231 | 40895 ft | 475 kts | 148° |
| 2026-05-05 17:49 | 49.86016 | 0.62087 | 40902 ft | 472 kts | 142° |
| 2026-05-05 17:49 | 49.81297 | 0.69244 | 40912 ft | 478 kts | 134° |
| 2026-05-05 17:50 | 49.76817 | 0.76926 | 40897 ft | 483 kts | 133° |
| 2026-05-05 17:50 | 49.72297 | 0.84660 | 40883 ft | 484 kts | 134° |
| 2026-05-05 17:51 | 49.67771 | 0.92315 | 40869 ft | 480 kts | 134° |
| 2026-05-05 17:51 | 49.63292 | 0.99836 | 40864 ft | 478 kts | 134° |
| 2026-05-05 17:52 | 49.58793 | 1.07367 | 40861 ft | 476 kts | 134° |
| 2026-05-05 17:52 | 49.54293 | 1.14878 | 40860 ft | 477 kts | 134° |
| 2026-05-05 17:53 | 49.49773 | 1.22400 | 40860 ft | 479 kts | 134° |
| 2026-05-05 17:53 | 49.45235 | 1.29930 | 40861 ft | 481 kts | 134° |
| 2026-05-05 17:54 | 49.40698 | 1.37439 | 40856 ft | 482 kts | 134° |
| 2026-05-05 17:54 | 49.36882 | 1.43739 | 40850 ft | 481 kts | 134° |
| 2026-05-05 17:55 | 49.32329 | 1.51234 | 40848 ft | 480 kts | 134° |
| 2026-05-05 17:55 | 49.27772 | 1.58713 | 40846 ft | 480 kts | 134° |
| 2026-05-05 17:56 | 49.23201 | 1.66194 | 40843 ft | 481 kts | 134° |
| 2026-05-05 17:56 | 49.18655 | 1.73611 | 40835 ft | 480 kts | 134° |
| 2026-05-05 17:57 | 49.14076 | 1.81063 | 40831 ft | 480 kts | 134° |
| 2026-05-05 17:57 | 49.09489 | 1.88505 | 40835 ft | 481 kts | 134° |
| 2026-05-05 17:58 | 49.06422 | 1.93468 | 40825 ft | 481 kts | 135° |
| 2026-05-05 17:58 | 49.03545 | 1.98116 | 40828 ft | 480 kts | 135° |
| 2026-05-05 17:59 | 48.98952 | 2.05518 | 40829 ft | 480 kts | 135° |
| 2026-05-05 17:59 | 48.94349 | 2.12916 | 40831 ft | 481 kts | 135° |
| 2026-05-05 18:00 | 48.89764 | 2.20264 | 40831 ft | 482 kts | 135° |
| 2026-05-05 18:00 | 48.85141 | 2.27652 | 40830 ft | 482 kts | 135° |
| 2026-05-05 18:01 | 48.80513 | 2.35025 | 40833 ft | 483 kts | 135° |
| 2026-05-05 18:01 | 48.75875 | 2.42396 | 40831 ft | 483 kts | 135° |
| 2026-05-05 18:02 | 48.71234 | 2.49750 | 40836 ft | 482 kts | 135° |
| 2026-05-05 18:02 | 48.66594 | 2.57081 | 40800 ft | 482 kts | 135° |
| 2026-05-05 18:03 | 48.61944 | 2.64410 | 40804 ft | 483 kts | 135° |
| 2026-05-05 18:03 | 48.57457 | 2.71932 | 40800 ft | 484 kts | 124° |
| 2026-05-05 18:03 | 48.55892 | 2.76442 | 40803 ft | 487 kts | 112° |
| 2026-05-05 18:04 | 48.54925 | 2.81360 | 40807 ft | 491 kts | 101° |
| 2026-05-05 18:04 | 48.54609 | 2.91692 | 40806 ft | 494 kts | 92° |
| 2026-05-05 18:05 | 48.54369 | 3.02056 | 40800 ft | 493 kts | 94° |
| 2026-05-05 18:05 | 48.54000 | 3.12394 | 40804 ft | 493 kts | 95° |
| 2026-05-05 18:06 | 48.53617 | 3.22648 | 40805 ft | 493 kts | 95° |
| 2026-05-05 18:06 | 48.53238 | 3.33003 | 40802 ft | 494 kts | 95° |
| 2026-05-05 18:07 | 48.52855 | 3.43358 | 40796 ft | 494 kts | 95° |
| 2026-05-05 18:07 | 48.52463 | 3.53714 | 40801 ft | 494 kts | 95° |
| 2026-05-05 18:08 | 48.52060 | 3.64079 | 40800 ft | 494 kts | 95° |
| 2026-05-05 18:08 | 48.51649 | 3.74436 | 40796 ft | 494 kts | 95° |
| 2026-05-05 18:09 | 48.51228 | 3.84790 | 40800 ft | 494 kts | 95° |
| 2026-05-05 18:09 | 48.50800 | 3.95131 | 40800 ft | 494 kts | 95° |
| 2026-05-05 18:10 | 48.49984 | 4.05403 | 40799 ft | 492 kts | 104° |
| 2026-05-05 18:10 | 48.48217 | 4.15283 | 40803 ft | 491 kts | 108° |
| 2026-05-05 18:11 | 48.46336 | 4.25200 | 40801 ft | 491 kts | 108° |
| 2026-05-05 18:11 | 48.44484 | 4.35122 | 40798 ft | 491 kts | 108° |
| 2026-05-05 18:12 | 48.42651 | 4.45053 | 40800 ft | 491 kts | 108° |
| 2026-05-05 18:12 | 48.40819 | 4.54952 | 40804 ft | 491 kts | 108° |
| 2026-05-05 18:13 | 48.38974 | 4.64855 | 40805 ft | 491 kts | 108° |
| 2026-05-05 18:13 | 48.37116 | 4.74771 | 40805 ft | 491 kts | 108° |
| 2026-05-05 18:14 | 48.35265 | 4.84595 | 40806 ft | 491 kts | 108° |
| 2026-05-05 18:14 | 48.33392 | 4.94480 | 40810 ft | 491 kts | 108° |
| 2026-05-05 18:15 | 48.31515 | 5.04343 | 40814 ft | 491 kts | 108° |
| 2026-05-05 18:15 | 48.29631 | 5.14196 | 40819 ft | 491 kts | 108° |
| 2026-05-05 18:16 | 48.27699 | 5.24015 | 40825 ft | 490 kts | 109° |
| 2026-05-05 18:16 | 48.25714 | 5.33817 | 40818 ft | 490 kts | 109° |
| 2026-05-05 18:17 | 48.23725 | 5.43603 | 40823 ft | 490 kts | 109° |
| 2026-05-05 18:17 | 48.21735 | 5.53391 | 40828 ft | 491 kts | 109° |
| 2026-05-05 18:18 | 48.19753 | 5.63112 | 40834 ft | 491 kts | 109° |
| 2026-05-05 18:18 | 48.17750 | 5.72884 | 40831 ft | 490 kts | 109° |
| 2026-05-05 18:19 | 48.15734 | 5.82667 | 40832 ft | 491 kts | 109° |
| 2026-05-05 18:19 | 48.13713 | 5.92432 | 40831 ft | 491 kts | 109° |
| 2026-05-05 18:20 | 48.11679 | 6.02207 | 40835 ft | 491 kts | 110° |
| 2026-05-05 18:20 | 48.09641 | 6.11956 | 40842 ft | 491 kts | 110° |
| 2026-05-05 18:21 | 48.07591 | 6.21712 | 40847 ft | 491 kts | 110° |
| 2026-05-05 18:21 | 48.05546 | 6.31404 | 40859 ft | 491 kts | 110° |
| 2026-05-05 18:22 | 48.03484 | 6.41124 | 40859 ft | 491 kts | 110° |
| 2026-05-05 18:22 | 48.01410 | 6.50860 | 40862 ft | 491 kts | 110° |
| 2026-05-05 18:23 | 47.99334 | 6.60565 | 40862 ft | 491 kts | 110° |
| 2026-05-05 18:23 | 47.97166 | 6.70238 | 40859 ft | 489 kts | 114° |
| 2026-05-05 18:24 | 47.94629 | 6.79656 | 40859 ft | 489 kts | 115° |
| 2026-05-05 18:24 | 47.92037 | 6.89034 | 40872 ft | 489 kts | 115° |
| 2026-05-05 18:25 | 47.89478 | 6.98362 | 40847 ft | 489 kts | 115° |
| 2026-05-05 18:25 | 47.86909 | 7.07760 | 40862 ft | 489 kts | 115° |
| 2026-05-05 18:26 | 47.84340 | 7.17129 | 40852 ft | 489 kts | 115° |
| 2026-05-05 18:26 | 47.81759 | 7.26497 | 40860 ft | 489 kts | 115° |
| 2026-05-05 18:27 | 47.79170 | 7.35857 | 40858 ft | 489 kts | 115° |
| 2026-05-05 18:27 | 47.76576 | 7.45205 | 40856 ft | 489 kts | 115° |
| 2026-05-05 18:28 | 47.70559 | 7.56866 | 40866 ft | 474 kts | 149° |
| 2026-05-05 18:28 | 47.64687 | 7.61014 | 40862 ft | 471 kts | 160° |
| 2026-05-05 18:29 | 47.58619 | 7.64769 | 40858 ft | 472 kts | 160° |
| 2026-05-05 18:29 | 47.52568 | 7.68580 | 40851 ft | 471 kts | 159° |
| 2026-05-05 18:30 | 47.46606 | 7.72396 | 40864 ft | 470 kts | 159° |
| 2026-05-05 18:30 | 47.40588 | 7.76261 | 40874 ft | 471 kts | 159° |
| 2026-05-05 18:31 | 47.34580 | 7.80110 | 40883 ft | 471 kts | 159° |
| 2026-05-05 18:31 | 47.28567 | 7.83949 | 40884 ft | 471 kts | 159° |
| 2026-05-05 18:32 | 47.22553 | 7.87779 | 40892 ft | 471 kts | 160° |
| 2026-05-05 18:32 | 47.16532 | 7.91603 | 40905 ft | 471 kts | 160° |
| 2026-05-05 18:33 | 47.10502 | 7.95424 | 40906 ft | 472 kts | 160° |
| 2026-05-05 18:33 | 47.04512 | 7.99212 | 40889 ft | 458 kts | 160° |
| 2026-05-05 18:34 | 47.01635 | 8.01034 | 40891 ft | 444 kts | 160° |
| 2026-05-05 18:34 | 46.98822 | 8.02810 | 40897 ft | 437 kts | 160° |
| 2026-05-05 18:34 | 46.94163 | 8.05736 | 40907 ft | 441 kts | 160° |
| 2026-05-05 18:35 | 46.88525 | 8.09270 | 40909 ft | 440 kts | 160° |
| 2026-05-05 18:35 | 46.82924 | 8.12779 | 40908 ft | 436 kts | 160° |
| 2026-05-05 18:36 | 46.77356 | 8.16259 | 40841 ft | 432 kts | 160° |
| 2026-05-05 18:36 | 46.74610 | 8.17975 | 40529 ft | 426 kts | 161° |
| 2026-05-05 18:36 | 46.71882 | 8.19676 | 39917 ft | 428 kts | 161° |
| 2026-05-05 18:37 | 46.69133 | 8.21385 | 39200 ft | 431 kts | 161° |
| 2026-05-05 18:37 | 46.66367 | 8.23103 | 38608 ft | 432 kts | 161° |
| 2026-05-05 18:37 | 46.63602 | 8.24820 | 37914 ft | 433 kts | 161° |
| 2026-05-05 18:37 | 46.60858 | 8.26526 | 37736 ft | 422 kts | 162° |
| 2026-05-05 18:38 | 46.58195 | 8.28185 | 37467 ft | 412 kts | 163° |
| 2026-05-05 18:38 | 46.55557 | 8.29820 | 36724 ft | 413 kts | 162° |
| 2026-05-05 18:38 | 46.52871 | 8.31473 | 35642 ft | 425 kts | 163° |
| 2026-05-05 18:38 | 46.50161 | 8.33138 | 34865 ft | 429 kts | 163° |
| 2026-05-05 18:39 | 46.47419 | 8.34833 | 34274 ft | 426 kts | 164° |
| 2026-05-05 18:39 | 46.44697 | 8.36516 | 33620 ft | 423 kts | 164° |
| 2026-05-05 18:39 | 46.41985 | 8.38185 | 32643 ft | 425 kts | 164° |
| 2026-05-05 18:39 | 46.39245 | 8.39855 | 31693 ft | 427 kts | 165° |
| 2026-05-05 18:40 | 46.36489 | 8.41487 | 30739 ft | 429 kts | 165° |
| 2026-05-05 18:40 | 46.33712 | 8.43109 | 29837 ft | 430 kts | 165° |
| 2026-05-05 18:40 | 46.30930 | 8.44730 | 28784 ft | 430 kts | 165° |
| 2026-05-05 18:40 | 46.28146 | 8.46352 | 27611 ft | 433 kts | 164° |
| 2026-05-05 18:41 | 46.25343 | 8.47988 | 26492 ft | 435 kts | 164° |
| 2026-05-05 18:41 | 46.22547 | 8.49626 | 25638 ft | 430 kts | 163° |
| 2026-05-05 18:41 | 46.19800 | 8.51237 | 24973 ft | 423 kts | 163° |
| 2026-05-05 18:41 | 46.17086 | 8.52826 | 24233 ft | 418 kts | 163° |
| 2026-05-05 18:42 | 46.14404 | 8.54396 | 23489 ft | 415 kts | 163° |
| 2026-05-05 18:42 | 46.11735 | 8.55955 | 22644 ft | 411 kts | 163° |
| 2026-05-05 18:42 | 46.09129 | 8.57474 | 21895 ft | 407 kts | 162° |
| 2026-05-05 18:42 | 46.06514 | 8.58997 | 21139 ft | 403 kts | 162° |
| 2026-05-05 18:43 | 46.03936 | 8.60499 | 20643 ft | 394 kts | 162° |
| 2026-05-05 18:43 | 46.01441 | 8.61952 | 20432 ft | 380 kts | 162° |
| 2026-05-05 18:43 | 45.99032 | 8.63354 | 20192 ft | 367 kts | 163° |
| 2026-05-05 18:43 | 45.96700 | 8.64708 | 19832 ft | 358 kts | 163° |
| 2026-05-05 18:44 | 45.94400 | 8.66038 | 19330 ft | 355 kts | 163° |
| 2026-05-05 18:44 | 45.92112 | 8.67359 | 18784 ft | 353 kts | 162° |
| 2026-05-05 18:44 | 45.89836 | 8.68673 | 18242 ft | 352 kts | 162° |
| 2026-05-05 18:44 | 45.87561 | 8.69985 | 17651 ft | 350 kts | 162° |
| 2026-05-05 18:45 | 45.85306 | 8.71287 | 17093 ft | 348 kts | 162° |
| 2026-05-05 18:45 | 45.83070 | 8.72578 | 16538 ft | 345 kts | 162° |
| 2026-05-05 18:45 | 45.80890 | 8.73836 | 16135 ft | 338 kts | 162° |
| 2026-05-05 18:45 | 45.78729 | 8.75083 | 15799 ft | 329 kts | 162° |
| 2026-05-05 18:46 | 45.76630 | 8.76295 | 15463 ft | 323 kts | 161° |
| 2026-05-05 18:46 | 45.74606 | 8.77664 | 15003 ft | 321 kts | 156° |
| 2026-05-05 18:46 | 45.72646 | 8.79199 | 14534 ft | 321 kts | 155° |
| 2026-05-05 18:46 | 45.70699 | 8.80755 | 14037 ft | 320 kts | 154° |
| 2026-05-05 18:47 | 45.68749 | 8.82296 | 13545 ft | 319 kts | 155° |
| 2026-05-05 18:47 | 45.66811 | 8.83805 | 13065 ft | 316 kts | 155° |
| 2026-05-05 18:47 | 45.64887 | 8.85287 | 12588 ft | 313 kts | 155° |
| 2026-05-05 18:47 | 45.62976 | 8.86753 | 12117 ft | 310 kts | 155° |
| 2026-05-05 18:48 | 45.61045 | 8.88013 | 11589 ft | 302 kts | 166° |
| 2026-05-05 18:48 | 45.59038 | 8.88622 | 11422 ft | 287 kts | 173° |
| 2026-05-05 18:48 | 45.57115 | 8.89061 | 11329 ft | 273 kts | 173° |
| 2026-05-05 18:48 | 45.55308 | 8.89496 | 11176 ft | 262 kts | 173° |
| 2026-05-05 18:49 | 45.53538 | 8.89952 | 10923 ft | 255 kts | 172° |
| 2026-05-05 18:49 | 45.51803 | 8.90413 | 10586 ft | 253 kts | 172° |
| 2026-05-05 18:49 | 45.50077 | 8.90876 | 10220 ft | 252 kts | 172° |
| 2026-05-05 18:49 | 45.48351 | 8.91341 | 9743 ft | 254 kts | 172° |
| 2026-05-05 18:50 | 45.46600 | 8.91815 | 9232 ft | 257 kts | 171° |
| 2026-05-05 18:50 | 45.44835 | 8.92295 | 8761 ft | 258 kts | 171° |
| 2026-05-05 18:50 | 45.43071 | 8.92775 | 8350 ft | 257 kts | 171° |
| 2026-05-05 18:50 | 45.41324 | 8.93249 | 7980 ft | 254 kts | 171° |
| 2026-05-05 18:51 | 45.39590 | 8.93720 | 7578 ft | 252 kts | 171° |
| 2026-05-05 18:51 | 45.37873 | 8.94185 | 7185 ft | 251 kts | 171° |
| 2026-05-05 18:51 | 45.36162 | 8.94649 | 6787 ft | 249 kts | 171° |
| 2026-05-05 18:51 | 45.34460 | 8.95110 | 6405 ft | 247 kts | 171° |
| 2026-05-05 18:52 | 45.32776 | 8.95565 | 6079 ft | 245 kts | 171° |
| 2026-05-05 18:52 | 45.31121 | 8.96013 | 6022 ft | 245 kts | 171° |
| 2026-05-05 18:52 | 45.29454 | 8.96171 | 5764 ft | 241 kts | 194° |
| 2026-05-05 18:52 | 45.28020 | 8.95020 | 5444 ft | 238 kts | 225° |
| 2026-05-05 18:53 | 45.27170 | 8.93020 | 5092 ft | 238 kts | 249° |
| 2026-05-05 18:53 | 45.26952 | 8.90686 | 4743 ft | 239 kts | 275° |
| 2026-05-05 18:53 | 45.27477 | 8.88463 | 4772 ft | 243 kts | 299° |
| 2026-05-05 18:53 | 45.28624 | 8.86675 | 4775 ft | 250 kts | 326° |
| 2026-05-05 18:54 | 45.30218 | 8.85666 | 4787 ft | 253 kts | 337° |
| 2026-05-05 18:54 | 45.31848 | 8.84766 | 4774 ft | 252 kts | 338° |
| 2026-05-05 18:54 | 45.33454 | 8.83873 | 4671 ft | 245 kts | 337° |
| 2026-05-05 18:54 | 45.35033 | 8.82985 | 4580 ft | 243 kts | 337° |
| 2026-05-05 18:55 | 45.36596 | 8.82098 | 4485 ft | 240 kts | 337° |
| 2026-05-05 18:55 | 45.38140 | 8.81217 | 4400 ft | 239 kts | 337° |
| 2026-05-05 18:55 | 45.39681 | 8.80334 | 4307 ft | 239 kts | 337° |
| 2026-05-05 18:55 | 45.41243 | 8.79512 | 4207 ft | 240 kts | 342° |
| 2026-05-05 18:56 | 45.42847 | 8.78910 | 4123 ft | 237 kts | 347° |
| 2026-05-05 18:56 | 45.44438 | 8.78456 | 4030 ft | 226 kts | 349° |
| 2026-05-05 18:56 | 45.45937 | 8.78052 | 3890 ft | 215 kts | 349° |
| 2026-05-05 18:56 | 45.47374 | 8.77660 | 3604 ft | 205 kts | 349° |
| 2026-05-05 18:57 | 45.48749 | 8.77282 | 3321 ft | 197 kts | 349° |
| 2026-05-05 18:57 | 45.50077 | 8.76917 | 3054 ft | 191 kts | 350° |
| 2026-05-05 18:57 | 45.51364 | 8.76563 | 2797 ft | 187 kts | 350° |
| 2026-05-05 18:57 | 45.52596 | 8.76223 | 2566 ft | 172 kts | 351° |
| 2026-05-05 18:58 | 45.53716 | 8.75914 | 2353 ft | 156 kts | 351° |
| 2026-05-05 18:58 | 45.54764 | 8.75626 | 2124 ft | 153 kts | 351° |
| 2026-05-05 18:58 | 45.55808 | 8.75340 | 1906 ft | 154 kts | 351° |
| 2026-05-05 18:58 | 45.56868 | 8.75048 | 1776 ft | 157 kts | 350° |
| 2026-05-05 18:59 | 45.57943 | 8.74744 | 1626 ft | 158 kts | 350° |
| 2026-05-05 18:59 | 45.59012 | 8.74447 | 1380 ft | 158 kts | 350° |
| 2026-05-05 18:59 | 45.60063 | 8.74165 | 1076 ft | 146 kts | 349° |
| 2026-05-05 18:59 | 45.61026 | 8.73899 | 851 ft | 138 kts | 349° |
| 2026-05-05 19:00 | 45.61966 | 8.73641 | 756 ft | 137 kts | 349° |
| 2026-05-05 19:00 | 45.62833 | 8.73405 | 746 ft | 112 kts | 349° |
| 2026-05-05 19:00 | 45.63449 | 8.73233 | 745 ft | 54 kts | 348° |
| 2026-05-05 19:00 | 45.63760 | 8.73016 | 742 ft | 48 kts | 313° |
| 2026-05-05 19:01 | 45.63855 | 8.72837 | 743 ft | 16 kts | 304° |
| 2026-05-05 19:01 | 45.63916 | 8.72707 | 743 ft | 16 kts | 303° |
| 2026-05-05 19:01 | 45.63958 | 8.72564 | 744 ft | 16 kts | 274° |
| 2026-05-05 19:01 | 45.63934 | 8.72363 | 744 ft | 22 kts | 258° |
| 2026-05-05 19:02 | 45.63917 | 8.72141 | 745 ft | 23 kts | 267° |
| 2026-05-05 19:02 | 45.63901 | 8.71916 | 744 ft | 23 kts | 253° |
| 2026-05-05 19:02 | 45.63771 | 8.71830 | 743 ft | 23 kts | 170° |
| 2026-05-05 19:02 | 45.63608 | 8.71877 | 744 ft | 25 kts | 168° |
| 2026-05-05 19:03 | 45.63435 | 8.71926 | 742 ft | 26 kts | 171° |
| 2026-05-05 19:03 | 45.63258 | 8.71974 | 743 ft | 26 kts | 168° |
| 2026-05-05 19:03 | 45.63082 | 8.72026 | 744 ft | 26 kts | 169° |
| 2026-05-05 19:03 | 45.62908 | 8.72074 | 743 ft | 26 kts | 169° |
| 2026-05-05 19:04 | 45.62729 | 8.72123 | 744 ft | 26 kts | 169° |
| 2026-05-05 19:04 | 45.62552 | 8.72171 | 743 ft | 26 kts | 169° |
| 2026-05-05 19:04 | 45.62377 | 8.72223 | 743 ft | 26 kts | 168° |
| 2026-05-05 19:04 | 45.62200 | 8.72270 | 746 ft | 26 kts | 176° |
| 2026-05-05 19:05 | 45.62025 | 8.72314 | 744 ft | 26 kts | 168° |
| 2026-05-05 19:05 | 45.61931 | 8.72343 | 746 ft | 13 kts | 169° |
| 2026-05-05 19:05 | 45.61852 | 8.72287 | 744 ft | 14 kts | 233° |
| 2026-05-05 19:05 | 45.61830 | 8.72244 | 743 ft | 6 kts | 272° |
| 2026-05-05 19:06 | 45.61830 | 8.72242 | 743 ft | 6 kts | 272° |